Carvers, Nevada
Current Conditions -  °F | °C
As of 7:56 AM on Monday 24 Nov 2014 (Local Time) from KTPH Reporting Station
Clear Clear  
Wind Chill: 24°   Ceiling: Unl
Heat Index: 30°   Visibility: 10mi
Dew Point:   Wind: 6mph
Humidity: 40%   Direction: 330°NNW
Pressure: 30.42"   Gusts: NA
Location:  38.8172°N, 117.224°W
Report Text: KTPH 241556Z AUTO 33005KT 10SM CLR M01/M13 A3042 RMK AO2 SLP314 T10111133
Loading
Personal Weather Stations






























Interactive Weather Map New forecast layout! Learn more

10-Day Weather Forecast

Advertisements
Track Severe Weather on mobile